Time,TemperatureF,DewpointF,PressureIn,WindDirection,WindDirectionDegrees,WindSpeedMPH,WindSpeedGustMPH,Humidity,HourlyPrecipIn,Conditions,Clouds,dailyrainin,SoftwareType,DateUTC
2013-08-18 00:09:00,65.5,65.0,30.18,NW,326,0.0,2.0,97,0.04,,,0.37,weatherlink.com 1.10,2013-08-18 04:09:00,
2013-08-18 00:24:00,65.5,65.0,30.18,WNW,303,0.0,2.0,98,0.05,,,0.01,weatherlink.com 1.10,2013-08-18 04:24:00,
2013-08-18 00:39:00,65.5,65.0,30.18,NNW,344,0.0,2.0,98,0.05,,,0.02,weatherlink.com 1.10,2013-08-18 04:39:00,
2013-08-18 00:54:00,65.4,65.0,30.18,NNW,330,0.0,1.0,98,0.03,,,0.02,weatherlink.com 1.10,2013-08-18 04:54:00,
2013-08-18 01:09:00,65.4,65.0,30.18,NW,310,0.0,2.0,98,0.03,,,0.03,weatherlink.com 1.10,2013-08-18 05:09:00,
2013-08-18 01:24:00,65.4,65.0,30.18,NNW,330,0.0,1.0,98,0.03,,,0.04,weatherlink.com 1.10,2013-08-18 05:24:00,
2013-08-18 01:39:00,65.5,65.0,30.18,NW,309,1.0,2.0,98,0.03,,,0.05,weatherlink.com 1.10,2013-08-18 05:39:00,
2013-08-18 01:54:00,65.5,65.0,30.18,NW,312,0.0,1.0,98,0.03,,,0.06,weatherlink.com 1.10,2013-08-18 05:54:00,
2013-08-18 02:09:00,65.4,65.0,30.18,NW,312,0.0,0.0,98,0.04,,,0.07,weatherlink.com 1.10,2013-08-18 06:09:00,
2013-08-18 02:24:00,65.5,65.0,30.17,NW,312,0.0,0.0,98,0.05,,,0.09,weatherlink.com 1.10,2013-08-18 06:24:00,
2013-08-18 02:39:00,65.4,65.0,30.17,NW,312,0.0,0.0,98,0.05,,,0.10,weatherlink.com 1.10,2013-08-18 06:39:00,
2013-08-18 02:54:00,65.5,65.0,30.16,North,10,0.0,1.0,98,0.04,,,0.10,weatherlink.com 1.10,2013-08-18 06:54:00,
2013-08-18 03:09:00,65.4,65.0,30.17,NW,312,1.0,1.0,98,0.03,,,0.10,weatherlink.com 1.10,2013-08-18 07:09:00,
2013-08-18 03:24:00,65.4,65.0,30.16,NE,34,0.0,1.0,98,0.02,,,0.11,weatherlink.com 1.10,2013-08-18 07:24:00,
2013-08-18 03:39:00,65.4,65.0,30.16,North,360,0.0,1.0,98,0.01,,,0.11,weatherlink.com 1.10,2013-08-18 07:39:00,
2013-08-18 03:54:00,65.5,65.0,30.16,SE,128,0.0,3.0,98,0.01,,,0.11,weatherlink.com 1.10,2013-08-18 07:54:00,
2013-08-18 04:09:00,65.5,65.0,30.16,ENE,60,0.0,1.0,98,0.01,,,0.11,weatherlink.com 1.10,2013-08-18 08:09:00,
2013-08-18 04:24:00,65.6,65.0,30.16,East,87,0.0,2.0,98,0.00,,,0.11,weatherlink.com 1.10,2013-08-18 08:24:00,
2013-08-18 04:39:00,65.8,65.0,30.17,ESE,114,0.0,2.0,98,0.00,,,0.11,weatherlink.com 1.10,2013-08-18 08:39:00,
2013-08-18 04:54:00,65.9,65.0,30.16,East,88,2.0,3.0,98,0.01,,,0.12,weatherlink.com 1.10,2013-08-18 08:54:00,
2013-08-18 05:09:00,66.0,66.0,30.16,ESE,108,2.0,3.0,98,0.02,,,0.13,weatherlink.com 1.10,2013-08-18 09:09:00,
2013-08-18 05:24:00,65.9,65.0,30.17,ESE,123,2.0,3.0,98,0.02,,,0.13,weatherlink.com 1.10,2013-08-18 09:24:00,
2013-08-18 05:39:00,66.0,65.0,30.17,ESE,123,2.0,3.0,97,0.02,,,0.13,weatherlink.com 1.10,2013-08-18 09:39:00,
2013-08-18 05:54:00,66.0,66.0,30.18,ESE,120,3.0,4.0,98,0.01,,,0.13,weatherlink.com 1.10,2013-08-18 09:54:00,
2013-08-18 06:09:00,66.3,66.0,30.17,East,96,2.0,3.0,98,0.00,,,0.13,weatherlink.com 1.10,2013-08-18 10:09:00,
2013-08-18 06:24:00,66.2,65.0,30.17,East,95,3.0,4.0,97,0.00,,,0.13,weatherlink.com 1.10,2013-08-18 10:24:00,
2013-08-18 06:39:00,66.2,65.0,30.18,SE,143,2.0,4.0,97,0.00,,,0.13,weatherlink.com 1.10,2013-08-18 10:39:00,
2013-08-18 06:54:00,66.1,66.0,30.19,SE,124,2.0,5.0,98,0.00,,,0.13,weatherlink.com 1.10,2013-08-18 10:54:00,
2013-08-18 07:09:00,66.0,66.0,30.19,East,93,1.0,4.0,98,0.00,,,0.13,weatherlink.com 1.10,2013-08-18 11:09:00,
2013-08-18 07:24:00,66.2,66.0,30.20,East,90,1.0,2.0,98,0.00,,,0.13,weatherlink.com 1.10,2013-08-18 11:24:00,
2013-08-18 07:39:00,66.3,66.0,30.20,East,91,1.0,2.0,98,0.00,,,0.13,weatherlink.com 1.10,2013-08-18 11:39:00,
2013-08-18 07:54:00,66.6,66.0,30.20,East,87,0.0,3.0,97,0.00,,,0.13,weatherlink.com 1.10,2013-08-18 11:54:00,
2013-08-18 08:09:00,66.7,66.0,30.21,East,83,1.0,2.0,97,0.00,,,0.13,weatherlink.com 1.10,2013-08-18 12:09:00,
2013-08-18 08:24:00,66.8,66.0,30.21,ESE,115,2.0,3.0,97,0.00,,,0.13,weatherlink.com 1.10,2013-08-18 12:24:00,
2013-08-18 08:39:00,67.2,66.0,30.22,East,85,0.0,3.0,97,0.00,,,0.13,weatherlink.com 1.10,2013-08-18 12:39:00,
2013-08-18 08:54:00,67.9,67.0,30.22,SE,124,0.0,1.0,95,0.00,,,0.13,weatherlink.com 1.10,2013-08-18 12:54:00,
2013-08-18 09:09:00,67.8,66.0,30.22,East,82,0.0,2.0,95,0.00,,,0.13,weatherlink.com 1.10,2013-08-18 13:09:00,
2013-08-18 09:24:00,68.0,67.0,30.23,East,84,0.0,1.0,95,0.00,,,0.13,weatherlink.com 1.10,2013-08-18 13:24:00,
2013-08-18 09:39:00,68.9,67.0,30.23,East,83,0.0,1.0,94,0.00,,,0.13,weatherlink.com 1.10,2013-08-18 13:39:00,
2013-08-18 09:54:00,69.5,67.0,30.23,ESE,114,3.0,3.0,92,0.00,,,0.13,weatherlink.com 1.10,2013-08-18 13:54:00,
2013-08-18 10:09:00,69.4,67.0,30.24,SE,128,2.0,3.0,93,0.00,,,0.13,weatherlink.com 1.10,2013-08-18 14:09:00,
2013-08-18 10:25:00,69.7,67.0,30.24,East,92,3.0,4.0,92,0.00,,,0.13,weatherlink.com 1.10,2013-08-18 14:25:00,
2013-08-18 10:40:00,69.3,67.0,30.25,SSE,154,2.0,5.0,92,0.00,,,0.13,weatherlink.com 1.10,2013-08-18 14:40:00,
2013-08-18 10:55:00,69.4,67.0,30.25,ESE,110,4.0,7.0,92,0.00,,,0.13,weatherlink.com 1.10,2013-08-18 14:55:00,
2013-08-18 11:10:00,68.9,67.0,30.25,SE,146,3.0,7.0,92,0.00,,,0.13,weatherlink.com 1.10,2013-08-18 15:10:00,
2013-08-18 11:25:00,68.5,67.0,30.23,NE,49,0.0,7.0,96,0.01,,,0.14,weatherlink.com 1.10,2013-08-18 15:25:00,
2013-08-18 11:40:00,69.0,68.0,30.25,ESE,121,2.0,3.0,95,0.03,,,0.16,weatherlink.com 1.10,2013-08-18 15:40:00,
2013-08-18 11:55:00,69.6,68.0,30.25,East,94,0.0,4.0,94,0.03,,,0.16,weatherlink.com 1.10,2013-08-18 15:55:00,
2013-08-18 12:10:00,70.3,68.0,30.25,SSE,155,0.0,2.0,92,0.03,,,0.16,weatherlink.com 1.10,2013-08-18 16:10:00,
2013-08-18 12:25:00,70.4,68.0,30.25,NW,323,1.0,3.0,93,0.04,,,0.18,weatherlink.com 1.10,2013-08-18 16:25:00,
2013-08-18 12:40:00,71.3,69.0,30.25,West,276,0.0,2.0,92,0.02,,,0.18,weatherlink.com 1.10,2013-08-18 16:40:00,
2013-08-18 12:55:00,73.3,69.0,30.24,ENE,78,0.0,4.0,87,0.02,,,0.18,weatherlink.com 1.10,2013-08-18 16:55:00,
2013-08-18 13:10:00,74.3,69.0,30.23,SSE,153,5.0,5.0,84,0.02,,,0.18,weatherlink.com 1.10,2013-08-18 17:10:00,
2013-08-18 13:25:00,75.2,70.0,30.23,East,95,0.0,6.0,83,0.00,,,0.18,weatherlink.com 1.10,2013-08-18 17:25:00,
2013-08-18 13:40:00,76.1,69.0,30.22,WNW,297,5.0,8.0,79,0.00,,,0.18,weatherlink.com 1.10,2013-08-18 17:40:00,
2013-08-18 13:55:00,77.2,69.0,30.22,WNW,297,0.0,9.0,75,0.00,,,0.18,weatherlink.com 1.10,2013-08-18 17:55:00,
2013-08-18 14:10:00,75.8,67.0,30.22,WSW,238,2.0,10.0,74,0.00,,,0.18,weatherlink.com 1.10,2013-08-18 18:10:00,
2013-08-18 14:25:00,75.2,66.0,30.21,East,81,2.0,15.0,74,0.00,,,0.18,weatherlink.com 1.10,2013-08-18 18:25:00,
2013-08-18 14:40:00,75.3,66.0,30.21,West,275,4.0,13.0,72,0.00,,,0.18,weatherlink.com 1.10,2013-08-18 18:40:00,
2013-08-18 14:55:00,76.9,67.0,30.20,North,349,0.0,11.0,72,0.00,,,0.18,weatherlink.com 1.10,2013-08-18 18:55:00,
2013-08-18 15:10:00,77.1,67.0,30.20,WNW,283,14.0,14.0,70,0.00,,,0.18,weatherlink.com 1.10,2013-08-18 19:10:00,
2013-08-18 15:25:00,77.8,66.0,30.19,NNE,24,3.0,14.0,66,0.00,,,0.18,weatherlink.com 1.10,2013-08-18 19:25:00,
2013-08-18 15:40:00,76.2,65.0,30.19,WNW,285,7.0,15.0,68,0.00,,,0.18,weatherlink.com 1.10,2013-08-18 19:40:00,
2013-08-18 15:55:00,76.6,66.0,30.19,West,276,8.0,13.0,69,0.00,,,0.18,weatherlink.com 1.10,2013-08-18 19:55:00,
2013-08-18 16:10:00,75.9,65.0,30.19,WSW,250,6.0,11.0,70,0.00,,,0.18,weatherlink.com 1.10,2013-08-18 20:10:00,
2013-08-18 16:24:00,75.4,65.0,30.18,WNW,291,9.0,11.0,71,0.00,,,0.18,weatherlink.com 1.10,2013-08-18 20:24:00,
2013-08-18 16:40:00,75.2,66.0,30.18,WSW,255,10.0,12.0,73,0.00,,,0.18,weatherlink.com 1.10,2013-08-18 20:40:00,
2013-08-18 16:55:00,75.3,66.0,30.18,WSW,255,5.0,10.0,73,0.00,,,0.18,weatherlink.com 1.10,2013-08-18 20:55:00,
2013-08-18 17:10:00,75.2,66.0,30.18,WSW,244,9.0,11.0,73,0.00,,,0.18,weatherlink.com 1.10,2013-08-18 21:10:00,
2013-08-18 17:25:00,72.9,67.0,30.19,NW,325,2.0,16.0,81,0.00,,,0.18,weatherlink.com 1.10,2013-08-18 21:25:00,
2013-08-18 17:40:00,71.2,68.0,30.19,NW,318,4.0,7.0,88,0.01,,,0.19,weatherlink.com 1.10,2013-08-18 21:40:00,
2013-08-18 17:55:00,71.5,68.0,30.18,NW,307,5.0,5.0,89,0.01,,,0.19,weatherlink.com 1.10,2013-08-18 21:55:00,
2013-08-18 18:10:00,71.9,68.0,30.18,NW,312,2.0,6.0,87,0.01,,,0.19,weatherlink.com 1.10,2013-08-18 22:10:00,
2013-08-18 18:25:00,71.8,68.0,30.19,WNW,300,0.0,5.0,88,0.01,,,0.19,weatherlink.com 1.10,2013-08-18 22:25:00,
2013-08-18 18:40:00,71.8,68.0,30.18,SW,225,5.0,10.0,86,0.00,,,0.19,weatherlink.com 1.10,2013-08-18 22:40:00,
2013-08-18 18:55:00,71.8,66.0,30.18,WSW,250,7.0,8.0,81,0.00,,,0.19,weatherlink.com 1.10,2013-08-18 22:55:00,
2013-08-18 19:10:00,72.0,66.0,30.18,West,262,3.0,8.0,81,0.00,,,0.19,weatherlink.com 1.10,2013-08-18 23:10:00,
2013-08-18 19:25:00,71.9,66.0,30.18,SSW,210,4.0,8.0,82,0.00,,,0.19,weatherlink.com 1.10,2013-08-18 23:25:00,
2013-08-18 19:40:00,71.7,66.0,30.18,WSW,245,4.0,7.0,83,0.00,,,0.19,weatherlink.com 1.10,2013-08-18 23:40:00,
2013-08-18 19:55:00,71.6,67.0,30.19,SSW,213,0.0,4.0,84,0.00,,,0.19,weatherlink.com 1.10,2013-08-18 23:55:00,
2013-08-18 20:10:00,71.3,67.0,30.20,SE,142,4.0,6.0,85,0.00,,,0.19,weatherlink.com 1.10,2013-08-19 00:10:00,
2013-08-18 20:25:00,71.1,67.0,30.20,SSW,193,5.0,6.0,87,0.00,,,0.19,weatherlink.com 1.10,2013-08-19 00:25:00,
2013-08-18 20:40:00,71.0,67.0,30.20,SSE,155,3.0,5.0,88,0.00,,,0.19,weatherlink.com 1.10,2013-08-19 00:40:00,
2013-08-18 20:55:00,71.0,67.0,30.20,SE,145,4.0,6.0,88,0.00,,,0.19,weatherlink.com 1.10,2013-08-19 00:55:00,
2013-08-18 21:10:00,70.9,68.0,30.20,ESE,119,4.0,5.0,89,0.00,,,0.19,weatherlink.com 1.10,2013-08-19 01:10:00,
2013-08-18 21:25:00,70.8,68.0,30.21,ESE,113,3.0,4.0,90,0.00,,,0.19,weatherlink.com 1.10,2013-08-19 01:25:00,
2013-08-18 21:40:00,70.5,68.0,30.21,ESE,115,4.0,5.0,91,0.00,,,0.19,weatherlink.com 1.10,2013-08-19 01:40:00,
2013-08-18 21:55:00,70.2,68.0,30.22,SE,137,4.0,5.0,92,0.00,,,0.19,weatherlink.com 1.10,2013-08-19 01:55:00,
2013-08-18 22:10:00,69.8,68.0,30.22,SSE,160,4.0,5.0,93,0.00,,,0.19,weatherlink.com 1.10,2013-08-19 02:10:00,
2013-08-18 22:25:00,69.6,68.0,30.22,ESE,104,5.0,6.0,94,0.00,,,0.19,weatherlink.com 1.10,2013-08-19 02:25:00,
2013-08-18 22:40:00,69.2,68.0,30.22,SSE,168,6.0,8.0,94,0.00,,,0.19,weatherlink.com 1.10,2013-08-19 02:40:00,
2013-08-18 22:55:00,69.1,67.0,30.22,ESE,120,3.0,4.0,94,0.00,,,0.19,weatherlink.com 1.10,2013-08-19 02:55:00,
2013-08-18 23:10:00,68.8,67.0,30.22,South,173,1.0,3.0,95,0.01,,,0.20,weatherlink.com 1.10,2013-08-19 03:10:00,
2013-08-18 23:25:00,69.0,68.0,30.21,ESE,122,2.0,3.0,95,0.01,,,0.20,weatherlink.com 1.10,2013-08-19 03:25:00,
2013-08-18 23:40:00,69.1,68.0,30.21,ESE,107,3.0,4.0,95,0.01,,,0.20,weatherlink.com 1.10,2013-08-19 03:40:00,
2013-08-18 23:55:00,69.0,68.0,30.21,East,93,2.0,4.0,95,0.02,,,0.21,weatherlink.com 1.10,2013-08-19 03:55:00,